Time;durP1;ratioP1;P1;durP2;ratioP2;P2;SDS_P1;SDS_P2;PMS_P1;PMS_P2;Temp;Humidity;BMP_temperature;BMP_pressure;BME280_temperature;BME280_humidity;BME280_pressure;Samples;Min_cycle;Max_cycle;Signal;HPM_P1;HPM_P2
2021/06/06 18:39:32;;;;;;;11.40;10.17;;;22.80;99.90;;;;;;5119097;27;20512;-82
2021/06/06 18:41:58;;;;;;;13.20;10.73;;;22.50;99.90;;;;;;5073439;28;20445;-83
2021/06/06 18:44:25;;;;;;;17.43;11.30;;;22.10;99.90;;;;;;5074369;28;20449;-83
2021/06/06 18:46:53;;;;;;;16.00;10.80;;;21.90;99.90;;;;;;5082126;28;20472;-84
2021/06/06 18:49:20;;;;;;;14.67;11.90;;;21.60;99.90;;;;;;5077396;28;20426;-85
2021/06/06 18:51:47;;;;;;;14.77;12.70;;;21.30;99.90;;;;;;5078349;28;20425;-79
2021/06/06 18:54:14;;;;;;;14.73;11.93;;;21.10;99.90;;;;;;5078410;28;20497;-83
2021/06/06 18:56:44;;;;;;;16.47;13.03;;;20.90;99.90;;;;;;5078929;28;20479;-84
2021/06/06 18:59:10;;;;;;;15.07;12.20;;;20.70;99.90;;;;;;5075313;28;20553;-84
2021/06/06 19:01:39;;;;;;;15.40;12.50;;;20.70;99.90;;;;;;5076024;28;20442;-83
2021/06/06 19:04:05;;;;;;;16.47;13.47;;;20.40;99.90;;;;;;5067033;28;20442;-83
2021/06/06 19:06:34;;;;;;;15.80;13.23;;;20.40;99.90;;;;;;5067245;28;20843;-83
2021/06/06 19:09:04;;;;;;;18.90;13.07;;;20.30;99.90;;;;;;5065130;28;20445;-84
2021/06/06 19:11:33;;;;;;;16.83;12.97;;;20.30;99.90;;;;;;5070371;28;20417;-85
2021/06/06 19:13:59;;;;;;;20.10;13.90;;;20.30;99.90;;;;;;5056170;28;21022;-86
2021/06/06 19:16:26;;;;;;;17.70;13.03;;;20.20;99.90;;;;;;5068611;28;20441;-83
2021/06/06 19:18:52;;;;;;;22.30;14.67;;;20.20;99.90;;;;;;5065873;28;20519;-85
2021/06/06 19:21:18;;;;;;;19.60;14.53;;;20.20;99.90;;;;;;5070301;28;20441;-85
2021/06/06 19:23:44;;;;;;;20.03;14.53;;;20.10;99.90;;;;;;5069504;28;20507;-86
2021/06/06 19:26:13;;;;;;;19.47;14.27;;;20.10;99.90;;;;;;5064018;28;20438;-83
2021/06/06 19:28:40;;;;;;;19.27;14.20;;;20.00;99.90;;;;;;5066534;28;20422;-85
2021/06/06 19:31:08;;;;;;;25.33;17.37;;;20.10;99.90;;;;;;5070433;28;20993;-85
2021/06/06 19:33:35;;;;;;;20.80;15.50;;;20.00;99.90;;;;;;5067281;28;20575;-82
2021/06/06 19:36:01;;;;;;;21.47;15.37;;;19.90;99.90;;;;;;5064905;28;20596;-80
2021/06/06 19:38:33;;;;;;;20.40;15.23;;;19.90;99.90;;;;;;5064311;28;20549;-82
2021/06/06 19:40:59;;;;;;;19.57;15.43;;;19.90;99.90;;;;;;5065872;28;20547;-82
2021/06/06 19:43:27;;;;;;;23.53;15.43;;;19.90;99.90;;;;;;5068501;28;20428;-82
2021/06/06 19:45:53;;;;;;;22.93;16.37;;;19.90;99.90;;;;;;5068234;28;20440;-83
2021/06/06 19:48:19;;;;;;;31.83;16.97;;;20.00;99.90;;;;;;5066389;28;20821;-83
2021/06/06 19:50:45;;;;;;;23.87;16.70;;;19.90;99.90;;;;;;5054593;28;20230;-83
2021/06/06 19:53:14;;;;;;;25.10;16.97;;;19.80;99.90;;;;;;5050956;28;20430;-85
2021/06/06 19:55:43;;;;;;;26.87;18.60;;;19.70;99.90;;;;;;5052171;28;20430;-83
2021/06/06 19:58:09;;;;;;;23.47;16.17;;;19.80;99.90;;;;;;5046285;28;20482;-81
2021/06/06 20:00:36;;;;;;;25.93;15.93;;;19.70;99.90;;;;;;5052752;28;20528;-84
2021/06/06 20:03:04;;;;;;;24.20;16.50;;;19.70;99.90;;;;;;5041035;28;21248;-82
2021/06/06 20:05:34;;;;;;;22.23;15.30;;;19.70;99.90;;;;;;5047790;28;20922;-83
2021/06/06 20:08:01;;;;;;;19.90;16.37;;;19.80;99.90;;;;;;5050996;28;21129;-81
2021/06/06 20:10:31;;;;;;;22.40;16.43;;;19.90;99.90;;;;;;5047519;28;20453;-83
2021/06/06 20:12:57;;;;;;;20.30;14.40;;;19.90;99.90;;;;;;5053552;28;20450;-81
2021/06/06 20:15:29;;;;;;;23.97;16.07;;;19.90;99.90;;;;;;5052195;28;20498;-82
2021/06/06 20:17:56;;;;;;;26.17;17.73;;;20.00;99.90;;;;;;5050246;28;20462;-83
2021/06/06 20:20:23;;;;;;;24.20;17.47;;;20.00;99.90;;;;;;5048017;28;20548;-81
2021/06/06 20:22:56;;;;;;;24.07;15.20;;;20.10;99.90;;;;;;5051502;28;20461;-84
2021/06/06 20:25:27;;;;;;;24.70;16.87;;;20.10;99.90;;;;;;5048506;28;20434;-81
2021/06/06 20:27:55;;;;;;;24.37;17.50;;;20.00;99.90;;;;;;5044620;28;21058;-82
2021/06/06 20:30:22;;;;;;;23.93;17.07;;;20.00;99.90;;;;;;5048641;28;20449;-80
2021/06/06 20:32:54;;;;;;;25.30;18.30;;;19.90;99.90;;;;;;5049597;28;20521;-81
2021/06/06 20:37:49;;;;;;;25.70;18.67;;;19.90;99.90;;;;;;5050940;28;21080;-82
2021/06/06 20:40:16;;;;;;;24.43;17.00;;;19.80;99.90;;;;;;5038469;28;20499;-80
2021/06/06 20:42:43;;;;;;;27.30;18.47;;;19.70;99.90;;;;;;5048672;28;20184;-82
2021/06/06 20:45:38;;;;;;;25.43;17.83;;;19.70;99.90;;;;;;5047424;28;20476;-84
2021/06/06 20:48:07;;;;;;;27.67;18.40;;;19.80;99.90;;;;;;5045274;28;20458;-83
2021/06/06 20:50:35;;;;;;;29.70;16.90;;;19.70;99.90;;;;;;5050055;28;20434;-82
2021/06/06 20:53:02;;;;;;;27.53;16.80;;;19.80;99.90;;;;;;5051857;28;20450;-82
2021/06/06 20:55:28;;;;;;;24.63;18.13;;;19.90;99.90;;;;;;5049773;28;20501;-83
2021/06/06 20:57:54;;;;;;;28.17;18.73;;;19.90;99.90;;;;;;5056140;28;20512;-82
2021/06/06 21:00:32;;;;;;;27.27;18.27;;;19.80;99.90;;;;;;5040113;28;20427;-80
2021/06/06 21:02:58;;;;;;;30.93;18.10;;;19.80;99.90;;;;;;5051175;28;20456;-79
2021/06/06 21:05:24;;;;;;;30.07;19.47;;;19.90;99.90;;;;;;5050275;28;20430;-82
2021/06/06 21:07:50;;;;;;;25.93;17.53;;;19.80;99.90;;;;;;5049125;28;20299;-83
2021/06/06 21:10:16;;;;;;;32.63;19.77;;;19.70;99.90;;;;;;5051853;28;20184;-81
2021/06/06 21:12:48;;;;;;;33.90;18.57;;;19.70;99.90;;;;;;5051247;28;20549;-81
2021/06/06 21:15:17;;;;;;;26.53;18.67;;;19.70;99.90;;;;;;5050185;28;20434;-83
2021/06/06 21:17:43;;;;;;;28.53;19.60;;;19.80;99.90;;;;;;5030589;28;20469;-82
2021/06/06 21:20:10;;;;;;;32.50;20.47;;;19.80;99.90;;;;;;5051177;28;20643;-81
2021/06/06 21:22:36;;;;;;;29.07;18.40;;;19.80;99.90;;;;;;5049138;28;20423;-83
2021/06/06 21:25:04;;;;;;;35.50;18.27;;;19.80;99.90;;;;;;5049504;28;20460;-81
2021/06/06 21:27:30;;;;;;;27.30;18.03;;;19.70;99.90;;;;;;5049005;28;20466;-81
2021/06/06 21:29:56;;;;;;;31.03;18.60;;;19.80;99.90;;;;;;5046516;28;20427;-80
2021/06/06 21:32:22;;;;;;;28.63;19.00;;;19.80;99.90;;;;;;5051621;28;22158;-82
2021/06/06 21:34:48;;;;;;;31.30;19.30;;;19.80;99.90;;;;;;5054113;28;20202;-80
2021/06/06 21:37:14;;;;;;;28.30;18.50;;;19.90;99.90;;;;;;5051474;28;20280;-82
2021/06/06 21:39:40;;;;;;;25.67;18.47;;;19.80;99.90;;;;;;5049865;28;20445;-81
2021/06/06 21:42:05;;;;;;;29.13;19.07;;;19.70;99.90;;;;;;5045083;28;20187;-80
2021/06/06 21:44:33;;;;;;;28.83;19.00;;;19.70;99.90;;;;;;5047456;28;20192;-79
2021/06/06 21:47:00;;;;;;;31.27;19.40;;;19.80;99.90;;;;;;5051762;28;21099;-80
2021/06/06 21:49:25;;;;;;;30.23;19.00;;;19.70;99.90;;;;;;5046529;28;20466;-81
2021/06/06 21:51:51;;;;;;;29.80;19.60;;;19.80;99.90;;;;;;5050805;28;20442;-81
2021/06/06 21:54:17;;;;;;;28.57;18.70;;;19.90;99.90;;;;;;5049653;28;20195;-81
2021/06/06 21:56:43;;;;;;;34.03;18.30;;;19.80;99.90;;;;;;5048625;28;20553;-82
2021/06/06 21:59:09;;;;;;;32.13;19.73;;;19.90;99.90;;;;;;5049049;28;20703;-81
2021/06/06 22:01:35;;;;;;;29.60;18.53;;;20.00;99.90;;;;;;5048966;28;20206;-81
2021/06/06 22:04:02;;;;;;;35.57;20.37;;;19.90;99.90;;;;;;5049406;28;20434;-78
2021/06/06 22:06:31;;;;;;;31.67;19.50;;;19.90;99.90;;;;;;5049336;28;20527;-80
2021/06/06 22:08:58;;;;;;;30.73;19.60;;;19.80;99.90;;;;;;5052393;28;20426;-81
2021/06/06 22:11:28;;;;;;;28.20;18.13;;;19.80;99.90;;;;;;5055525;28;20454;-81
2021/06/06 22:13:54;;;;;;;26.50;18.10;;;19.90;99.90;;;;;;5053378;28;20452;-80
2021/06/06 22:16:22;;;;;;;28.53;18.70;;;19.90;99.90;;;;;;5057836;28;20463;-82
2021/06/06 22:21:54;;;;;;;32.17;19.07;;;19.80;99.90;;;;;;5053640;28;20431;-82
2021/06/06 22:24:57;;;;;;;30.70;20.27;;;19.80;99.90;;;;;;5055940;28;20434;-79
2021/06/06 22:28:01;;;;;;;27.07;19.43;;;19.80;99.90;;;;;;5053420;28;20527;-82
2021/06/06 22:31:04;;;;;;;26.83;19.37;;;19.70;99.90;;;;;;5050932;28;20453;-81
2021/06/06 22:34:07;;;;;;;28.87;19.70;;;19.70;99.90;;;;;;5056149;28;20445;-82
2021/06/06 22:37:10;;;;;;;29.47;19.80;;;19.70;99.90;;;;;;5058079;28;20469;-81
2021/06/06 22:40:14;;;;;;;30.40;19.30;;;19.70;99.90;;;;;;5053376;28;20442;-79
2021/06/06 22:43:17;;;;;;;29.00;18.70;;;19.60;99.90;;;;;;5049828;28;20433;-81
2021/06/06 22:46:20;;;;;;;27.60;18.23;;;19.60;99.90;;;;;;5052384;28;20438;-79
2021/06/06 22:49:23;;;;;;;31.20;21.33;;;19.70;99.90;;;;;;5046495;28;20477;-80
2021/06/06 22:52:26;;;;;;;30.83;19.27;;;19.70;99.90;;;;;;5048435;28;20488;-81
2021/06/06 22:55:29;;;;;;;37.77;20.00;;;19.70;99.90;;;;;;5048973;28;20531;-82
2021/06/06 22:58:32;;;;;;;29.37;18.47;;;19.60;99.90;;;;;;5046650;28;21719;-79
2021/06/06 23:01:35;;;;;;;31.60;19.67;;;19.70;99.90;;;;;;5046424;28;20461;-79
2021/06/06 23:04:38;;;;;;;30.20;18.87;;;19.70;99.90;;;;;;5047320;28;20442;-79
2021/06/06 23:07:41;;;;;;;27.27;19.43;;;19.80;99.90;;;;;;5047451;28;20467;-79
2021/06/06 23:10:45;;;;;;;28.27;18.07;;;19.70;99.90;;;;;;5048047;28;20885;-82
2021/06/06 23:13:48;;;;;;;30.60;20.10;;;19.80;99.90;;;;;;5048993;28;20448;-80
2021/06/06 23:16:33;;;;;;;28.43;19.30;;;19.70;99.90;;;;;;5052125;28;20519;-81
2021/06/06 23:18:59;;;;;;;29.63;19.40;;;19.70;99.90;;;;;;5051811;28;20608;-82
2021/06/06 23:21:25;;;;;;;31.20;18.70;;;19.70;99.90;;;;;;5055940;28;20462;-80
2021/06/06 23:23:51;;;;;;;27.20;19.47;;;19.70;99.90;;;;;;5053859;28;20196;-83
2021/06/06 23:26:16;;;;;;;29.33;18.20;;;19.70;99.90;;;;;;5056712;28;20466;-81
2021/06/06 23:28:42;;;;;;;25.07;16.37;;;19.60;99.90;;;;;;5045220;28;20210;-83
2021/06/06 23:31:07;;;;;;;31.27;19.83;;;19.50;99.90;;;;;;5056448;28;20413;-81
2021/06/06 23:33:33;;;;;;;27.37;18.03;;;19.50;99.90;;;;;;5053530;28;20231;-80
2021/06/06 23:35:59;;;;;;;32.93;18.93;;;19.40;99.90;;;;;;5051445;28;20288;-83
2021/06/06 23:38:24;;;;;;;30.63;18.80;;;19.40;99.90;;;;;;5055672;28;20208;-82
2021/06/06 23:40:50;;;;;;;29.20;19.73;;;19.30;99.90;;;;;;5053341;28;20253;-82
2021/06/06 23:43:16;;;;;;;34.53;19.03;;;19.30;99.90;;;;;;5048324;28;20265;-81
2021/06/06 23:45:41;;;;;;;36.13;19.20;;;19.40;99.90;;;;;;5051743;28;20278;-80
2021/06/06 23:48:07;;;;;;;31.63;19.67;;;19.40;99.90;;;;;;5051825;28;20915;-80
2021/06/06 23:50:34;;;;;;;28.90;19.70;;;19.40;99.90;;;;;;5052169;28;20196;-82
2021/06/06 23:53:00;;;;;;;28.20;18.77;;;19.50;99.90;;;;;;5055718;28;20234;-83
2021/06/06 23:55:28;;;;;;;33.37;18.80;;;19.60;99.90;;;;;;5051527;28;20857;-81
2021/06/06 23:57:54;;;;;;;33.53;20.53;;;19.60;99.90;;;;;;5052785;28;20219;-81
